Time,TemperatureF,DewpointF,PressureIn,WindDirection,WindDirectionDegrees,WindSpeedMPH,WindSpeedGustMPH,Humidity,HourlyPrecipIn,Conditions,Clouds,dailyrainin,SoftwareType,DateUTC
2013-04-27 00:01:00,55.0,38.0,-100.00,South,190,10.0,12.0,52,-99.99,,,-99.99,,2013-04-27 07:01:00,
2013-04-27 01:10:00,51.0,38.0,-100.00,South,190,10.0,12.0,60,-99.99,,,-99.99,,2013-04-27 08:10:00,
2013-04-27 02:01:00,51.0,38.0,-100.00,South,190,10.0,12.0,60,-99.99,,,-99.99,,2013-04-27 09:01:00,
2013-04-27 02:10:00,48.0,36.0,-100.00,South,185,10.0,12.0,62,-99.99,,,-99.99,,2013-04-27 09:10:00,
2013-04-27 03:02:00,48.0,36.0,-100.00,South,185,10.0,12.0,62,-99.99,,,-99.99,,2013-04-27 10:02:00,
2013-04-27 04:02:00,47.0,35.0,-100.00,SSE,155,9.0,12.0,62,-99.99,,,-99.99,,2013-04-27 11:02:00,
2013-04-27 04:10:00,46.0,35.0,-100.00,South,175,14.0,17.0,65,-99.99,,,-99.99,,2013-04-27 11:10:00,
2013-04-27 04:11:00,47.0,35.0,-100.00,SSE,155,9.0,12.0,62,-99.99,,,-99.99,,2013-04-27 11:11:00,
2013-04-27 05:01:00,46.0,35.0,-100.00,South,175,14.0,17.0,65,-99.99,,,-99.99,,2013-04-27 12:01:00,
2013-04-27 07:02:00,47.0,33.0,-100.00,SSE,160,5.0,7.0,58,-99.99,,,-99.99,,2013-04-27 14:02:00,
2013-04-27 08:01:00,48.0,34.0,-100.00,SSE,165,8.0,12.0,58,-99.99,,,-99.99,,2013-04-27 15:01:00,
2013-04-27 09:02:00,52.0,36.0,-100.00,South,185,14.0,20.0,54,-99.99,,,-99.99,,2013-04-27 16:02:00,
2013-04-27 10:02:00,55.0,36.0,-100.00,South,180,18.0,27.0,48,-99.99,,,-99.99,,2013-04-27 17:02:00,
2013-04-27 11:02:00,56.0,36.0,-100.00,South,185,21.0,27.0,46,-99.99,,,-99.99,,2013-04-27 18:02:00,
2013-04-27 12:02:00,58.0,37.0,-100.00,South,185,18.0,25.0,45,-99.99,,,-99.99,,2013-04-27 19:02:00,
2013-04-27 13:02:00,58.0,37.0,-100.00,South,185,21.0,25.0,45,-99.99,,,-99.99,,2013-04-27 20:02:00,
2013-04-27 14:02:00,59.0,38.0,-100.00,South,180,21.0,25.0,45,-99.99,,,-99.99,,2013-04-27 21:02:00,
2013-04-27 15:02:00,60.0,38.0,-100.00,South,180,22.0,29.0,43,-99.99,,,-99.99,,2013-04-27 22:02:00,
2013-04-27 16:02:00,59.0,36.0,-100.00,South,180,24.0,32.0,42,-99.99,,,-99.99,,2013-04-27 23:02:00,
2013-04-27 17:01:00,60.0,35.0,-100.00,South,180,21.0,28.0,39,-99.99,,,-99.99,,2013-04-28 00:01:00,
2013-04-27 18:01:00,61.0,36.0,-100.00,South,175,21.0,29.0,39,-99.99,,,-99.99,,2013-04-28 01:01:00,
2013-04-27 19:01:00,60.0,36.0,-100.00,SSW,200,15.0,24.0,40,-99.99,,,-99.99,,2013-04-28 02:01:00,
2013-04-27 20:01:00,58.0,34.0,-100.00,SW,220,18.0,21.0,40,-99.99,,,-99.99,,2013-04-28 03:01:00,
2013-04-27 21:02:00,55.0,35.0,-100.00,SW,215,24.0,33.0,46,-99.99,,,-99.99,,2013-04-28 04:02:00,
2013-04-27 21:10:00,52.0,35.0,-100.00,SW,215,17.0,21.0,52,-99.99,,,-99.99,,2013-04-28 04:10:00,
2013-04-27 22:02:00,52.0,35.0,-100.00,SW,215,17.0,21.0,52,-99.99,,,-99.99,,2013-04-28 05:02:00,
2013-04-27 22:10:00,51.0,36.0,-100.00,SW,220,13.0,17.0,56,-99.99,,,-99.99,,2013-04-28 05:10:00,
2013-04-27 23:01:00,51.0,36.0,-100.00,SW,220,13.0,17.0,56,-99.99,,,-99.99,,2013-04-28 06:01:00,